Terminal Aerodrome Forecast
Issued by NWS

Home | Current Version | Previous Version | Text Only | Print | Product List | Glossary On
Versions: 1 2 3 4 5 6 7 8 9 10 11 12 13 14 15 16 17 18 19 20 21 22 23 24 25 26 27 28 29 30 31
095
FTUS45 KPSR 251427 AAA
TAFPHX
TAF AMD
KPHX 251427Z 2514/2612 29005KT P6SM FEW100 BKN200
     FM251800 27008KT P6SM FEW100 SCT250
      TEMPO 2522/2602 27011G17KT
     FM260800 12008KT P6SM SCT100 BKN180=

USA.gov is the U.S. government's official web portal to all federal, state and local government web resources and services.